Eagle County

Airport
ICAO code: 
KEGE
Summary
ICAO Region: 
NAM
Territory: 
Location: 
Eagle, Colorado,
Elevation: 
6548 ft
Coordinates: 
Aerial View: 
39° 38' 32.959" N, 106° 55' 4.289" W
Airport RE: 
Hot and High Operations
Metar
Observation
KEGE 040656Z AUTO 00000KT 10SM CLR M04/M08 A3030 RMK AO2 SLP291 T10391078 FZRANO
Station
Eagle County Regional
Date/Time
2021-12-04 06:56:00
Wind direction
Wind speed
00 kts
Lowest cloud amount
n/a
Temperature
-3.9°C
Dew point
-7.8°C
Humidity
74%
Weather condition
n/a

Description

Eagle County Regional Airport, sometimes referred to as Vail/Eagle Airport or the Eagle Vail Airport, is a public airport located 6 km west of Eagle, Colorado, United States.

Climatology

Cold Semi-arid climate (Köppen climate classification BSk). - Hot, sometimes extremely hot summers and cold, sometimes very cold winters. Some snowfall during the winter. Areas featuring cold semi-arid climates are sometimes subject to major temperature swings during a 24 hour period.

Runways

Designator Length Width Surface Rops
8/26 1528 18 ASP No/No
7/25 2438 46 ASP Yes/Yes
Airport map: 
Aerial View: 

SKYbrary Partners:

Safety knowledge contributed by: